createdAt,value
2022-11-17T00:00:13.683Z,4.91
2022-11-17T00:02:40.439Z,4.96
2022-11-17T00:05:07.621Z,4.95
2022-11-17T00:07:34.699Z,4.97
2022-11-17T00:10:01.582Z,4.95
2022-11-17T00:12:47.007Z,4.95
2022-11-17T00:15:13.641Z,4.90
2022-11-17T00:17:40.297Z,4.93
2022-11-17T00:20:26.636Z,4.94
2022-11-17T00:22:53.278Z,4.94
2022-11-17T00:25:19.913Z,4.96
2022-11-17T00:27:46.603Z,5.02
2022-11-17T00:30:33.741Z,5.07
2022-11-17T00:33:22.167Z,5.07
2022-11-17T00:35:54.145Z,5.06
2022-11-17T00:38:20.877Z,5.10
2022-11-17T00:40:47.552Z,5.11
2022-11-17T00:43:14.415Z,5.10
2022-11-17T00:45:41.681Z,5.12
2022-11-17T00:48:08.600Z,5.09
2022-11-17T00:50:35.619Z,5.09
2022-11-17T00:53:02.276Z,5.15
2022-11-17T00:55:29.172Z,5.15
2022-11-17T00:57:56.153Z,5.11
2022-11-17T01:00:23.655Z,5.11
2022-11-17T01:02:50.398Z,5.05
2022-11-17T01:05:17.618Z,5.04
2022-11-17T01:07:44.442Z,4.95
2022-11-17T01:10:11.169Z,4.88
2022-11-17T01:12:37.887Z,4.91
2022-11-17T01:15:04.875Z,4.93
2022-11-17T01:17:31.569Z,5.03
2022-11-17T01:19:58.192Z,4.97
2022-11-17T01:22:24.916Z,4.99
2022-11-17T01:24:51.567Z,4.95
2022-11-17T01:27:18.241Z,5.00
2022-11-17T01:29:44.854Z,5.06
2022-11-17T01:32:11.536Z,5.03
2022-11-17T01:34:38.206Z,5.09
2022-11-17T01:37:20.080Z,5.06
2022-11-17T01:39:50.682Z,5.14
2022-11-17T01:42:21.681Z,5.19
2022-11-17T01:45:04.147Z,5.19
2022-11-17T01:47:42.941Z,5.19
2022-11-17T01:50:21.937Z,5.15
2022-11-17T01:52:50.509Z,5.14
2022-11-17T01:55:19.829Z,5.18
2022-11-17T01:58:01.024Z,5.18
2022-11-17T02:00:28.480Z,5.12
2022-11-17T02:02:56.037Z,5.10
2022-11-17T02:05:28.044Z,5.18
2022-11-17T02:07:56.830Z,5.27
2022-11-17T02:10:23.753Z,5.31
2022-11-17T02:12:50.784Z,5.31
2022-11-17T02:15:17.528Z,5.27
2022-11-17T02:17:44.453Z,5.18
2022-11-17T02:20:17.893Z,5.04
2022-11-17T02:23:04.929Z,4.96
2022-11-17T02:25:43.578Z,4.87
2022-11-17T02:28:22.460Z,4.82
2022-11-17T02:31:25.518Z,4.89
2022-11-17T02:33:55.829Z,4.88
2022-11-17T02:36:41.492Z,4.90
2022-11-17T02:39:23.150Z,4.87
2022-11-17T02:42:11.437Z,4.78
2022-11-17T02:44:51.035Z,4.70
2022-11-17T02:47:24.070Z,4.65
2022-11-17T02:49:55.647Z,4.59
2022-11-17T02:52:23.346Z,4.58
2022-11-17T02:54:50.006Z,4.65
2022-11-17T02:57:29.843Z,4.69
2022-11-17T02:59:59.551Z,4.73
2022-11-17T03:02:40.227Z,4.80
2022-11-17T03:05:18.362Z,4.89
2022-11-17T03:07:53.986Z,4.97
2022-11-17T03:10:27.690Z,4.92
2022-11-17T03:13:06.202Z,4.92
2022-11-17T03:15:43.924Z,4.89
2022-11-17T03:18:13.483Z,4.82
2022-11-17T03:20:55.093Z,4.74
2022-11-17T03:23:50.486Z,4.68
2022-11-17T03:26:26.738Z,4.71
2022-11-17T03:28:55.602Z,4.72
2022-11-17T03:31:26.312Z,4.67
2022-11-17T03:33:53.955Z,4.50
2022-11-17T03:36:25.932Z,4.34
2022-11-17T03:39:06.365Z,4.23
2022-11-17T03:41:39.423Z,4.28
2022-11-17T03:44:06.881Z,4.36
2022-11-17T03:46:37.043Z,4.42
2022-11-17T03:49:23.536Z,4.39
2022-11-17T03:51:50.700Z,4.38
2022-11-17T03:54:17.621Z,4.33
2022-11-17T03:57:02.801Z,4.33
2022-11-17T03:59:43.259Z,4.44
2022-11-17T04:02:20.330Z,4.59
2022-11-17T04:05:05.575Z,4.47
2022-11-17T04:07:43.944Z,4.46
2022-11-17T04:10:16.485Z,4.61
2022-11-17T04:13:02.402Z,4.67
2022-11-17T04:15:48.101Z,4.71
2022-11-17T04:18:15.272Z,4.74
2022-11-17T04:20:42.570Z,4.82
2022-11-17T04:23:14.366Z,4.81
2022-11-17T04:26:03.173Z,4.85
2022-11-17T04:28:38.445Z,4.78
2022-11-17T04:31:15.725Z,4.84
2022-11-17T04:33:43.530Z,4.89
2022-11-17T04:36:12.195Z,4.87
2022-11-17T04:38:48.096Z,4.86
2022-11-17T04:41:34.787Z,4.75
2022-11-17T04:44:02.228Z,4.67
2022-11-17T04:46:31.191Z,4.68
2022-11-17T04:48:58.987Z,4.74
2022-11-17T04:51:26.730Z,4.81
2022-11-17T04:53:53.803Z,4.87
2022-11-17T04:56:21.700Z,4.87
2022-11-17T04:58:48.905Z,4.83
2022-11-17T05:01:17.408Z,4.79
2022-11-17T05:03:47.031Z,4.66
2022-11-17T05:06:19.954Z,4.62
2022-11-17T05:08:46.998Z,4.54
2022-11-17T05:11:34.285Z,4.47
2022-11-17T05:14:01.604Z,4.37
2022-11-17T05:16:47.362Z,4.35
2022-11-17T05:19:18.087Z,4.32
2022-11-17T05:21:45.205Z,4.38
2022-11-17T05:24:14.319Z,4.42
2022-11-17T05:26:43.172Z,4.46
2022-11-17T05:29:11.441Z,4.40
2022-11-17T05:31:38.420Z,4.35
2022-11-17T05:34:07.260Z,4.32
2022-11-17T05:36:34.577Z,4.32
2022-11-17T05:39:01.301Z,4.34
2022-11-17T05:41:28.924Z,4.34
2022-11-17T05:43:56.487Z,4.29
2022-11-17T05:46:24.059Z,4.30
2022-11-17T05:48:51.720Z,4.37
2022-11-17T05:51:20.822Z,4.46
2022-11-17T05:53:48.107Z,4.44
2022-11-17T05:56:28.428Z,4.45
2022-11-17T05:59:10.861Z,4.47
2022-11-17T06:01:42.482Z,4.58
2022-11-17T06:04:10.141Z,4.48
2022-11-17T06:06:37.764Z,4.51
2022-11-17T06:09:04.857Z,4.57
2022-11-17T06:11:31.622Z,4.59
2022-11-17T06:13:58.321Z,4.60
2022-11-17T06:16:29.812Z,4.57
2022-11-17T06:19:05.140Z,4.59
2022-11-17T06:22:04.609Z,4.67
2022-11-17T06:24:20.771Z,4.82
2022-11-17T06:26:47.575Z,4.90
2022-11-17T06:29:15.396Z,5.03
2022-11-17T06:31:44.232Z,5.18
2022-11-17T06:34:11.457Z,5.31
2022-11-17T06:36:38.159Z,5.41
2022-11-17T06:39:04.964Z,5.54
2022-11-17T06:41:31.616Z,5.67
2022-11-17T06:43:58.285Z,5.78
2022-11-17T06:46:24.949Z,5.86
2022-11-17T06:48:54.506Z,5.95
2022-11-17T06:51:21.129Z,6.04
2022-11-17T06:53:47.808Z,6.11
2022-11-17T06:56:17.090Z,6.20
2022-11-17T06:58:43.856Z,6.26
2022-11-17T07:01:13.569Z,6.31
2022-11-17T07:03:43.038Z,6.36
2022-11-17T07:06:10.973Z,6.42
2022-11-17T07:08:38.525Z,6.44
2022-11-17T07:11:16.619Z,6.51
2022-11-17T07:13:43.533Z,6.56
2022-11-17T07:16:21.828Z,6.61
2022-11-17T07:18:50.893Z,6.68
2022-11-17T07:21:18.105Z,6.67
2022-11-17T07:23:45.921Z,6.71
2022-11-17T07:26:12.946Z,6.71
2022-11-17T07:28:39.681Z,6.75
2022-11-17T07:31:08.716Z,6.73
2022-11-17T07:33:36.660Z,6.74
2022-11-17T07:36:09.790Z,6.74
2022-11-17T07:38:38.370Z,6.73
2022-11-17T07:41:06.763Z,6.74
2022-11-17T07:43:35.008Z,6.74
2022-11-17T07:46:11.493Z,6.71
2022-11-17T07:48:38.786Z,6.65
2022-11-17T07:51:06.062Z,6.67
2022-11-17T07:53:35.165Z,6.71
2022-11-17T07:56:11.067Z,6.79
2022-11-17T07:58:38.942Z,6.79
2022-11-17T08:01:06.621Z,7.14
2022-11-17T08:03:33.519Z,7.21
2022-11-17T08:06:07.568Z,7.25
2022-11-17T08:08:35.051Z,7.17
2022-11-17T08:11:03.747Z,7.11
2022-11-17T08:13:30.549Z,7.06
2022-11-17T08:15:59.142Z,7.06
2022-11-17T08:18:25.978Z,6.98
2022-11-17T08:20:52.728Z,7.09
2022-11-17T08:23:19.528Z,7.21
2022-11-17T08:25:46.264Z,7.65
2022-11-17T08:28:12.925Z,7.56
2022-11-17T08:30:39.672Z,7.45
2022-11-17T08:33:06.412Z,7.31
2022-11-17T08:35:37.405Z,7.27
2022-11-17T08:38:04.536Z,7.24
2022-11-17T08:40:31.324Z,7.27
2022-11-17T08:43:01.529Z,7.25
2022-11-17T08:45:28.785Z,7.27
2022-11-17T08:47:58.507Z,7.31
2022-11-17T08:50:25.402Z,7.34
2022-11-17T08:52:52.917Z,7.41
2022-11-17T08:55:19.694Z,7.46
2022-11-17T08:57:46.582Z,7.54
2022-11-17T09:00:13.780Z,7.55
2022-11-17T09:02:40.615Z,7.64
2022-11-17T09:05:07.751Z,7.68
2022-11-17T09:07:35.732Z,7.72
2022-11-17T09:10:04.576Z,7.79
2022-11-17T09:12:32.431Z,7.87
2022-11-17T09:14:59.085Z,7.87
2022-11-17T09:17:25.818Z,7.95
2022-11-17T09:19:52.477Z,7.98
2022-11-17T09:22:19.957Z,8.03
2022-11-17T09:24:46.617Z,8.06
2022-11-17T09:27:13.972Z,8.04
2022-11-17T09:29:40.617Z,8.07
2022-11-17T09:32:07.441Z,8.09
2022-11-17T09:34:34.151Z,8.10
2022-11-17T09:37:00.874Z,8.10
2022-11-17T09:39:27.605Z,8.14
2022-11-17T09:41:57.343Z,8.22
2022-11-17T09:44:42.044Z,8.24
2022-11-17T09:47:33.129Z,8.29
2022-11-17T09:50:05.773Z,8.29
2022-11-17T09:52:59.834Z,8.34
2022-11-17T09:55:34.170Z,8.39
2022-11-17T09:58:18.545Z,8.44
2022-11-17T10:00:48.986Z,8.44
2022-11-17T10:03:18.364Z,8.49
2022-11-17T10:05:45.322Z,8.47
2022-11-17T10:08:17.722Z,8.48
2022-11-17T10:10:51.785Z,8.53
2022-11-17T10:13:29.420Z,8.56
2022-11-17T10:16:05.702Z,8.55
2022-11-17T10:18:38.049Z,8.55
2022-11-17T10:21:06.833Z,8.55
2022-11-17T10:23:58.380Z,8.56
2022-11-17T10:26:26.001Z,8.52
2022-11-17T10:29:08.763Z,8.53
2022-11-17T10:31:46.480Z,8.60
2022-11-17T10:34:41.626Z,8.61
2022-11-17T10:37:14.277Z,8.65
2022-11-17T10:39:42.965Z,8.64
2022-11-17T10:42:27.846Z,8.63
2022-11-17T10:44:59.553Z,8.71
2022-11-17T10:47:37.629Z,8.81
2022-11-17T10:50:25.725Z,8.92
2022-11-17T10:52:54.773Z,9.09
2022-11-17T10:55:26.327Z,9.18
2022-11-17T10:58:01.277Z,9.18
2022-11-17T11:00:32.658Z,9.19
2022-11-17T11:03:04.815Z,9.11
2022-11-17T11:05:31.534Z,9.18
2022-11-17T11:08:18.426Z,9.24
2022-11-17T11:10:49.482Z,9.27
2022-11-17T11:13:25.986Z,9.30
2022-11-17T11:15:53.602Z,9.39
2022-11-17T11:18:21.101Z,9.39
2022-11-17T11:21:07.688Z,9.41
2022-11-17T11:23:56.872Z,9.52
2022-11-17T11:26:36.444Z,9.63
2022-11-17T11:29:29.131Z,9.95
2022-11-17T11:32:14.722Z,10.28
2022-11-17T11:34:49.111Z,10.66
2022-11-17T11:37:16.880Z,10.86
2022-11-17T11:40:01.675Z,10.96
2022-11-17T11:42:52.817Z,11.59
2022-11-17T11:45:24.671Z,11.40
2022-11-17T11:48:32.386Z,11.10
2022-11-17T11:51:11.451Z,10.73
2022-11-17T11:54:29.116Z,10.65
2022-11-17T11:56:56.208Z,10.58
2022-11-17T11:59:38.504Z,10.60
2022-11-17T12:02:11.319Z,10.58
2022-11-17T12:04:48.949Z,10.51
2022-11-17T12:07:38.825Z,10.38
2022-11-17T12:10:36.499Z,10.38
2022-11-17T12:13:05.250Z,10.38
2022-11-17T12:15:34.349Z,10.40
2022-11-17T12:18:02.711Z,10.48
2022-11-17T12:20:38.675Z,10.78
2022-11-17T12:23:26.453Z,11.08
2022-11-17T12:25:57.017Z,11.10
2022-11-17T12:28:43.897Z,11.01
2022-11-17T12:31:25.781Z,11.07
2022-11-17T12:33:52.387Z,10.94
2022-11-17T12:36:30.542Z,10.87
2022-11-17T12:39:00.068Z,10.81
2022-11-17T12:41:48.400Z,10.80
2022-11-17T12:44:39.406Z,10.77
2022-11-17T12:47:16.848Z,10.75
2022-11-17T12:50:09.608Z,10.77
2022-11-17T12:52:46.516Z,10.78
2022-11-17T12:55:17.658Z,10.73
2022-11-17T12:57:47.987Z,10.68
2022-11-17T13:00:20.745Z,10.72
2022-11-17T13:03:09.448Z,10.69
2022-11-17T13:05:37.084Z,10.72
2022-11-17T13:08:22.477Z,10.72
2022-11-17T13:10:49.537Z,10.81
2022-11-17T13:13:24.217Z,10.87
2022-11-17T13:15:53.569Z,10.92
2022-11-17T13:18:41.277Z,10.99
2022-11-17T13:21:29.943Z,11.09
2022-11-17T13:23:58.549Z,11.26
2022-11-17T13:26:26.718Z,11.30
2022-11-17T13:29:13.327Z,11.49
2022-11-17T13:31:40.212Z,11.60
2022-11-17T13:34:09.820Z,12.10
2022-11-17T13:36:36.944Z,12.42
2022-11-17T13:39:03.766Z,12.56
2022-11-17T13:41:37.246Z,12.77
2022-11-17T13:44:06.313Z,12.92
2022-11-17T13:46:35.105Z,12.79
2022-11-17T13:49:01.839Z,12.50
2022-11-17T13:51:39.055Z,12.39
2022-11-17T13:54:12.202Z,12.23
2022-11-17T13:56:51.645Z,12.18
2022-11-17T13:59:18.316Z,12.12
2022-11-17T14:01:45.434Z,11.96
2022-11-17T14:04:23.303Z,11.69
2022-11-17T14:06:59.592Z,11.55
2022-11-17T14:09:28.829Z,11.39
2022-11-17T14:11:55.846Z,11.33
2022-11-17T14:14:31.555Z,11.28
2022-11-17T14:16:59.318Z,11.25
2022-11-17T14:19:31.840Z,11.16
2022-11-17T14:22:29.521Z,11.19
2022-11-17T14:24:58.234Z,11.13
2022-11-17T14:27:27.587Z,11.11
2022-11-17T14:29:54.316Z,11.04
2022-11-17T14:32:21.369Z,11.03
2022-11-17T14:34:48.007Z,11.00
2022-11-17T14:37:14.730Z,11.04
2022-11-17T14:39:41.563Z,11.03
2022-11-17T14:42:09.090Z,11.09
2022-11-17T14:44:35.728Z,11.06
2022-11-17T14:47:02.581Z,11.01
2022-11-17T14:49:29.286Z,10.91
2022-11-17T14:51:59.122Z,10.88
2022-11-17T14:54:26.351Z,10.87
2022-11-17T14:56:53.024Z,10.83
2022-11-17T14:59:19.887Z,10.83
2022-11-17T15:01:46.604Z,10.79
2022-11-17T15:04:48.145Z,10.74
2022-11-17T15:07:03.289Z,10.67
2022-11-17T15:09:30.113Z,10.57
2022-11-17T15:11:56.795Z,10.53
2022-11-17T15:14:23.472Z,10.47
2022-11-17T15:16:50.241Z,10.39
2022-11-17T15:19:17.029Z,10.31
2022-11-17T15:21:43.751Z,10.22
2022-11-17T15:24:10.474Z,10.18
2022-11-17T15:26:37.250Z,10.15
2022-11-17T15:29:04.410Z,10.14
2022-11-17T15:31:31.277Z,10.14
2022-11-17T15:33:58.082Z,10.15
2022-11-17T15:36:24.828Z,10.12
2022-11-17T15:38:53.324Z,10.09
2022-11-17T15:41:20.060Z,10.06
2022-11-17T15:43:46.756Z,10.03
2022-11-17T15:46:15.913Z,9.96
2022-11-17T15:48:44.603Z,9.92
2022-11-17T15:51:16.914Z,9.86
2022-11-17T15:53:45.135Z,9.80
2022-11-17T15:56:17.452Z,9.77
2022-11-17T15:58:44.496Z,9.73
2022-11-17T16:01:31.265Z,9.69
2022-11-17T16:04:01.040Z,9.64
2022-11-17T16:06:28.910Z,9.61
2022-11-17T16:08:55.689Z,9.62
2022-11-17T16:11:22.617Z,9.66
2022-11-17T16:13:52.667Z,9.70
2022-11-17T16:16:19.533Z,9.72
2022-11-17T16:18:46.271Z,9.70
2022-11-17T16:21:14.115Z,9.70
2022-11-17T16:23:46.048Z,9.71
2022-11-17T16:26:14.692Z,9.70
2022-11-17T16:28:41.922Z,9.69
2022-11-17T16:31:22.865Z,9.65
2022-11-17T16:33:51.915Z,9.67
2022-11-17T16:36:19.948Z,9.63
2022-11-17T16:39:01.032Z,9.63
2022-11-17T16:41:31.782Z,9.63
2022-11-17T16:43:58.798Z,9.62
2022-11-17T16:46:30.740Z,9.60
2022-11-17T16:49:07.243Z,9.58
2022-11-17T16:51:34.534Z,9.55
2022-11-17T16:54:04.240Z,9.52
2022-11-17T16:56:31.640Z,9.47
2022-11-17T16:58:58.845Z,9.45
2022-11-17T17:01:28.659Z,9.42
2022-11-17T17:03:57.001Z,9.36
2022-11-17T17:06:24.323Z,9.36
2022-11-17T17:08:56.190Z,9.31
2022-11-17T17:11:23.154Z,9.30
2022-11-17T17:13:50.265Z,9.32
2022-11-17T17:16:19.117Z,9.34
2022-11-17T17:18:46.112Z,9.33
2022-11-17T17:21:18.461Z,9.34
2022-11-17T17:23:45.729Z,9.35
2022-11-17T17:26:18.399Z,9.32
2022-11-17T17:28:47.284Z,9.32
2022-11-17T17:31:21.590Z,9.28
2022-11-17T17:33:50.501Z,9.27
2022-11-17T17:36:19.766Z,9.23
2022-11-17T17:38:53.284Z,9.24
2022-11-17T17:41:22.488Z,9.21
2022-11-17T17:43:55.683Z,9.19
2022-11-17T17:46:22.556Z,9.15
2022-11-17T17:48:49.245Z,9.11
2022-11-17T17:51:19.248Z,9.06
2022-11-17T17:53:49.991Z,9.04
2022-11-17T17:56:19.160Z,9.03
2022-11-17T17:58:48.700Z,9.05
2022-11-17T18:01:27.062Z,9.04
2022-11-17T18:04:01.128Z,9.05
2022-11-17T18:06:28.514Z,9.04
2022-11-17T18:08:55.240Z,9.05
2022-11-17T18:11:22.372Z,9.08
2022-11-17T18:13:51.211Z,9.10
2022-11-17T18:16:21.578Z,9.08
2022-11-17T18:18:49.231Z,9.09
2022-11-17T18:21:18.818Z,9.09
2022-11-17T18:23:45.687Z,9.10
2022-11-17T18:26:18.029Z,9.14
2022-11-17T18:28:49.304Z,9.14
2022-11-17T18:31:16.302Z,9.16
2022-11-17T18:33:45.324Z,9.17
2022-11-17T18:36:12.319Z,9.19
2022-11-17T18:38:39.056Z,9.21
2022-11-17T18:41:11.564Z,9.24
2022-11-17T18:43:38.789Z,9.23
2022-11-17T18:46:08.613Z,9.22
2022-11-17T18:48:37.479Z,9.20
2022-11-17T18:51:22.583Z,9.20
2022-11-17T18:53:51.576Z,9.20
2022-11-17T18:56:24.123Z,9.20
2022-11-17T18:58:51.060Z,9.18
2022-11-17T19:01:19.932Z,9.17
2022-11-17T19:03:49.796Z,9.15
2022-11-17T19:06:18.156Z,9.14
2022-11-17T19:08:45.908Z,9.13
2022-11-17T19:11:13.339Z,9.13
2022-11-17T19:13:41.845Z,9.15
2022-11-17T19:16:16.940Z,9.13
2022-11-17T19:18:45.040Z,9.12
2022-11-17T19:21:14.454Z,9.08
2022-11-17T19:23:47.980Z,9.07
2022-11-17T19:26:31.887Z,9.05
2022-11-17T19:29:04.061Z,9.05
2022-11-17T19:31:31.451Z,9.02
2022-11-17T19:33:58.736Z,9.00
2022-11-17T19:36:29.343Z,8.97
2022-11-17T19:38:57.578Z,8.94
2022-11-17T19:41:30.136Z,8.94
2022-11-17T19:43:59.248Z,8.96
2022-11-17T19:46:27.760Z,8.93
2022-11-17T19:48:55.733Z,8.96
2022-11-17T19:51:24.958Z,9.00
2022-11-17T19:53:54.125Z,9.02
2022-11-17T19:56:22.135Z,9.01
2022-11-17T19:58:49.809Z,8.96
2022-11-17T20:01:19.574Z,8.87
2022-11-17T20:03:47.298Z,8.69
2022-11-17T20:06:16.832Z,8.53
2022-11-17T20:08:44.335Z,8.31
2022-11-17T20:11:17.102Z,8.14
2022-11-17T20:13:44.305Z,8.04
2022-11-17T20:16:16.448Z,7.97
2022-11-17T20:18:44.411Z,7.96
2022-11-17T20:21:13.984Z,7.97
2022-11-17T20:23:41.034Z,7.97
2022-11-17T20:26:13.492Z,7.99
2022-11-17T20:28:40.717Z,8.01
2022-11-17T20:31:12.923Z,7.99
2022-11-17T20:33:40.729Z,7.96
2022-11-17T20:36:09.323Z,7.92
2022-11-17T20:38:36.171Z,7.96
2022-11-17T20:41:04.146Z,7.98
2022-11-17T20:43:31.469Z,8.01
2022-11-17T20:45:58.576Z,8.00
2022-11-17T20:48:26.445Z,7.98
2022-11-17T20:50:57.293Z,8.03
2022-11-17T20:53:24.354Z,8.01
2022-11-17T20:55:51.144Z,8.01
2022-11-17T20:58:17.837Z,8.01
2022-11-17T21:00:44.566Z,8.00
2022-11-17T21:03:11.261Z,8.03
2022-11-17T21:05:37.911Z,8.04
2022-11-17T21:08:04.953Z,8.05
2022-11-17T21:10:31.870Z,8.07
2022-11-17T21:12:59.203Z,8.07
2022-11-17T21:15:26.118Z,8.03
2022-11-17T21:18:11.312Z,8.04
2022-11-17T21:20:38.000Z,7.98
2022-11-17T21:23:04.694Z,7.98
2022-11-17T21:25:32.091Z,7.98
2022-11-17T21:27:58.753Z,7.95
2022-11-17T21:30:25.417Z,7.93
2022-11-17T21:32:52.076Z,7.85
2022-11-17T21:35:19.067Z,7.76
2022-11-17T21:37:45.832Z,7.76
2022-11-17T21:40:12.589Z,7.75
2022-11-17T21:42:39.339Z,7.70
2022-11-17T21:45:06.483Z,7.67
2022-11-17T21:47:33.162Z,7.60
2022-11-17T21:49:59.867Z,7.61
2022-11-17T21:52:26.541Z,7.57
2022-11-17T21:54:53.203Z,7.56
2022-11-17T21:57:19.951Z,7.51
2022-11-17T21:59:46.754Z,7.49
2022-11-17T22:02:13.576Z,7.46
2022-11-17T22:04:40.258Z,7.46
2022-11-17T22:07:07.032Z,7.43
2022-11-17T22:09:34.216Z,7.43
2022-11-17T22:12:01.211Z,7.44
2022-11-17T22:14:28.032Z,7.45
2022-11-17T22:16:56.442Z,7.41
2022-11-17T22:19:26.964Z,7.36
2022-11-17T22:21:54.460Z,7.38
2022-11-17T22:24:21.509Z,7.35
2022-11-17T22:26:48.792Z,7.40
2022-11-17T22:29:18.585Z,7.45
2022-11-17T22:31:48.609Z,7.42
2022-11-17T22:34:16.035Z,7.44
2022-11-17T22:36:43.095Z,7.44
2022-11-17T22:39:09.862Z,7.43
2022-11-17T22:41:37.086Z,7.37
2022-11-17T22:44:05.639Z,7.37
2022-11-17T22:46:32.513Z,7.34
2022-11-17T22:48:59.654Z,7.32
2022-11-17T22:51:45.130Z,7.23
2022-11-17T22:54:12.042Z,7.25
2022-11-17T22:56:39.602Z,7.23
2022-11-17T22:59:06.619Z,7.20
2022-11-17T23:01:33.902Z,7.18
2022-11-17T23:04:00.664Z,7.22
2022-11-17T23:06:27.507Z,7.24
2022-11-17T23:08:55.648Z,7.19
2022-11-17T23:11:36.503Z,7.17
2022-11-17T23:14:05.433Z,7.25
2022-11-17T23:16:33.204Z,7.20
2022-11-17T23:19:00.144Z,7.13
2022-11-17T23:21:27.629Z,7.10
2022-11-17T23:23:54.310Z,7.09
2022-11-17T23:26:21.261Z,7.09
2022-11-17T23:28:48.349Z,7.06
2022-11-17T23:31:16.957Z,7.05
2022-11-17T23:33:46.842Z,7.05
2022-11-17T23:36:16.647Z,6.99
2022-11-17T23:38:43.731Z,6.94
2022-11-17T23:41:13.369Z,6.93
2022-11-17T23:43:41.030Z,6.96
2022-11-17T23:46:11.464Z,6.95
2022-11-17T23:48:38.687Z,6.96
2022-11-17T23:51:11.078Z,6.91
2022-11-17T23:53:38.322Z,6.91
2022-11-17T23:56:06.577Z,6.87
2022-11-17T23:58:33.507Z,6.90
